Terminal Aerodrome Forecast
Issued by NWS

Home | Current Version | Previous Version | Text Only | Print | Product List | Glossary On
Versions: 1 2 3 4 5 6 7 8 9 10 11 12 13 14 15 16
000
FTUS46 KPDT 021120
TAFDLS
TAF
KDLS 021120Z 0212/0312 30014KT P6SM SCT080 BKN200
     FM021500 31011KT P6SM SCT070 OVC150
     FM021800 32014G22KT P6SM SCT070 BKN200
     FM022100 31018G28KT P6SM SCT200
     FM030300 31011KT P6SM SCT200=

USA.gov is the U.S. government's official web portal to all federal, state and local government web resources and services.